sensor_id;sensor_type;location;lat;lon;timestamp;P1;durP1;ratioP1;P2;durP2;ratioP2
35026;SDS011;60696;51.426;6.934;2023-03-12T00:01:29;5.25;;;1.63;;
35026;SDS011;60696;51.426;6.934;2023-03-12T00:03:57;2.55;;;1.15;;
35026;SDS011;60696;51.426;6.934;2023-03-12T00:06:25;2.65;;;1.15;;
35026;SDS011;60696;51.426;6.934;2023-03-12T00:08:51;8.02;;;1.67;;
35026;SDS011;60696;51.426;6.934;2023-03-12T00:11:17;3.20;;;1.63;;
35026;SDS011;60696;51.426;6.934;2023-03-12T00:13:47;1.75;;;1.13;;
35026;SDS011;60696;51.426;6.934;2023-03-12T00:16:17;4.47;;;1.70;;
35026;SDS011;60696;51.426;6.934;2023-03-12T00:18:43;4.97;;;1.20;;
35026;SDS011;60696;51.426;6.934;2023-03-12T00:21:11;4.40;;;1.20;;
35026;SDS011;60696;51.426;6.934;2023-03-12T00:23:36;2.28;;;1.00;;
35026;SDS011;60696;51.426;6.934;2023-03-12T00:26:06;3.25;;;1.00;;
35026;SDS011;60696;51.426;6.934;2023-03-12T00:28:34;1.73;;;0.95;;
35026;SDS011;60696;51.426;6.934;2023-03-12T00:31:00;7.18;;;1.38;;
35026;SDS011;60696;51.426;6.934;2023-03-12T00:33:47;4.32;;;1.30;;
35026;SDS011;60696;51.426;6.934;2023-03-12T00:36:16;2.50;;;1.25;;
35026;SDS011;60696;51.426;6.934;2023-03-12T00:38:43;3.17;;;1.10;;
35026;SDS011;60696;51.426;6.934;2023-03-12T00:41:09;1.77;;;0.90;;
35026;SDS011;60696;51.426;6.934;2023-03-12T00:43:34;7.95;;;1.58;;
35026;SDS011;60696;51.426;6.934;2023-03-12T00:46:00;7.05;;;1.48;;
35026;SDS011;60696;51.426;6.934;2023-03-12T00:48:26;6.07;;;1.55;;
35026;SDS011;60696;51.426;6.934;2023-03-12T00:50:51;5.80;;;1.30;;
35026;SDS011;60696;51.426;6.934;2023-03-12T00:53:17;4.10;;;1.38;;
35026;SDS011;60696;51.426;6.934;2023-03-12T00:55:43;2.25;;;1.08;;
35026;SDS011;60696;51.426;6.934;2023-03-12T00:58:08;3.88;;;1.35;;
35026;SDS011;60696;51.426;6.934;2023-03-12T01:00:34;2.33;;;1.13;;
35026;SDS011;60696;51.426;6.934;2023-03-12T01:02:59;5.47;;;1.13;;
35026;SDS011;60696;51.426;6.934;2023-03-12T01:05:25;1.98;;;1.13;;
35026;SDS011;60696;51.426;6.934;2023-03-12T01:07:51;2.88;;;1.23;;
35026;SDS011;60696;51.426;6.934;2023-03-12T01:10:16;4.30;;;1.25;;
35026;SDS011;60696;51.426;6.934;2023-03-12T01:12:43;2.33;;;0.95;;
35026;SDS011;60696;51.426;6.934;2023-03-12T01:15:11;2.13;;;1.20;;
35026;SDS011;60696;51.426;6.934;2023-03-12T01:17:37;3.28;;;1.48;;
35026;SDS011;60696;51.426;6.934;2023-03-12T01:20:03;4.13;;;1.08;;
35026;SDS011;60696;51.426;6.934;2023-03-12T01:22:29;2.80;;;1.35;;
35026;SDS011;60696;51.426;6.934;2023-03-12T01:24:55;1.90;;;1.02;;
35026;SDS011;60696;51.426;6.934;2023-03-12T01:27:21;3.45;;;1.20;;
35026;SDS011;60696;51.426;6.934;2023-03-12T01:29:47;3.25;;;1.30;;
35026;SDS011;60696;51.426;6.934;2023-03-12T01:32:12;7.50;;;1.63;;
35026;SDS011;60696;51.426;6.934;2023-03-12T01:34:38;3.55;;;1.45;;
35026;SDS011;60696;51.426;6.934;2023-03-12T01:37:03;2.88;;;0.95;;
35026;SDS011;60696;51.426;6.934;2023-03-12T01:39:30;2.72;;;1.30;;
35026;SDS011;60696;51.426;6.934;2023-03-12T01:41:56;4.18;;;1.20;;
35026;SDS011;60696;51.426;6.934;2023-03-12T01:44:21;3.33;;;1.35;;
35026;SDS011;60696;51.426;6.934;2023-03-12T01:46:47;1.60;;;0.63;;
35026;SDS011;60696;51.426;6.934;2023-03-12T01:49:22;4.03;;;1.17;;
35026;SDS011;60696;51.426;6.934;2023-03-12T01:51:58;3.47;;;1.10;;
35026;SDS011;60696;51.426;6.934;2023-03-12T01:54:31;3.05;;;0.90;;
35026;SDS011;60696;51.426;6.934;2023-03-12T01:57:01;4.90;;;0.70;;
35026;SDS011;60696;51.426;6.934;2023-03-12T01:59:31;10.60;;;1.13;;
35026;SDS011;60696;51.426;6.934;2023-03-12T02:02:01;1.30;;;0.90;;
35026;SDS011;60696;51.426;6.934;2023-03-12T02:04:28;8.30;;;2.33;;
35026;SDS011;60696;51.426;6.934;2023-03-12T02:09:26;3.33;;;0.90;;
35026;SDS011;60696;51.426;6.934;2023-03-12T02:11:52;2.90;;;1.17;;
35026;SDS011;60696;51.426;6.934;2023-03-12T02:14:18;5.10;;;1.27;;
35026;SDS011;60696;51.426;6.934;2023-03-12T02:16:44;3.47;;;1.15;;
35026;SDS011;60696;51.426;6.934;2023-03-12T02:19:13;4.75;;;1.13;;
35026;SDS011;60696;51.426;6.934;2023-03-12T02:22:01;2.20;;;1.10;;
35026;SDS011;60696;51.426;6.934;2023-03-12T02:24:42;4.43;;;1.20;;
35026;SDS011;60696;51.426;6.934;2023-03-12T02:27:16;3.47;;;0.93;;
35026;SDS011;60696;51.426;6.934;2023-03-12T02:29:43;1.65;;;0.95;;
35026;SDS011;60696;51.426;6.934;2023-03-12T02:32:12;2.65;;;0.98;;
35026;SDS011;60696;51.426;6.934;2023-03-12T02:34:43;2.30;;;1.00;;
35026;SDS011;60696;51.426;6.934;2023-03-12T02:37:09;5.43;;;0.90;;
35026;SDS011;60696;51.426;6.934;2023-03-12T02:39:35;3.28;;;0.90;;
35026;SDS011;60696;51.426;6.934;2023-03-12T02:42:02;3.05;;;1.02;;
35026;SDS011;60696;51.426;6.934;2023-03-12T02:44:29;2.60;;;0.90;;
35026;SDS011;60696;51.426;6.934;2023-03-12T02:46:58;2.65;;;1.10;;
35026;SDS011;60696;51.426;6.934;2023-03-12T02:49:27;1.75;;;1.05;;
35026;SDS011;60696;51.426;6.934;2023-03-12T02:51:55;8.40;;;1.05;;
35026;SDS011;60696;51.426;6.934;2023-03-12T02:54:21;2.50;;;0.82;;
35026;SDS011;60696;51.426;6.934;2023-03-12T02:56:47;4.07;;;1.13;;
35026;SDS011;60696;51.426;6.934;2023-03-12T02:59:13;3.95;;;0.98;;
35026;SDS011;60696;51.426;6.934;2023-03-12T03:01:40;6.68;;;1.38;;
35026;SDS011;60696;51.426;6.934;2023-03-12T03:04:07;5.75;;;0.95;;
35026;SDS011;60696;51.426;6.934;2023-03-12T03:06:34;2.67;;;0.90;;
35026;SDS011;60696;51.426;6.934;2023-03-12T03:09:03;3.70;;;1.38;;
35026;SDS011;60696;51.426;6.934;2023-03-12T03:11:29;3.35;;;1.13;;
35026;SDS011;60696;51.426;6.934;2023-03-12T03:13:55;8.65;;;1.23;;
35026;SDS011;60696;51.426;6.934;2023-03-12T03:16:21;4.25;;;1.25;;
35026;SDS011;60696;51.426;6.934;2023-03-12T03:18:47;2.28;;;0.60;;
35026;SDS011;60696;51.426;6.934;2023-03-12T03:21:13;3.60;;;1.15;;
35026;SDS011;60696;51.426;6.934;2023-03-12T03:23:43;4.20;;;1.10;;
35026;SDS011;60696;51.426;6.934;2023-03-12T03:26:12;2.20;;;1.05;;
35026;SDS011;60696;51.426;6.934;2023-03-12T03:28:39;2.67;;;1.08;;
35026;SDS011;60696;51.426;6.934;2023-03-12T03:31:04;2.28;;;0.88;;
35026;SDS011;60696;51.426;6.934;2023-03-12T03:33:32;5.30;;;1.05;;
35026;SDS011;60696;51.426;6.934;2023-03-12T03:35:59;4.43;;;1.05;;
35026;SDS011;60696;51.426;6.934;2023-03-12T03:38:26;4.07;;;0.70;;
35026;SDS011;60696;51.426;6.934;2023-03-12T03:40:53;4.63;;;0.50;;
35026;SDS011;60696;51.426;6.934;2023-03-12T03:43:19;3.35;;;0.80;;
35026;SDS011;60696;51.426;6.934;2023-03-12T03:45:46;2.47;;;1.02;;
35026;SDS011;60696;51.426;6.934;2023-03-12T03:48:12;1.85;;;0.98;;
35026;SDS011;60696;51.426;6.934;2023-03-12T03:50:38;1.08;;;0.60;;
35026;SDS011;60696;51.426;6.934;2023-03-12T03:53:05;7.32;;;0.90;;
35026;SDS011;60696;51.426;6.934;2023-03-12T03:55:35;1.40;;;0.70;;
35026;SDS011;60696;51.426;6.934;2023-03-12T03:58:02;1.85;;;0.57;;
35026;SDS011;60696;51.426;6.934;2023-03-12T04:00:27;6.97;;;1.20;;
35026;SDS011;60696;51.426;6.934;2023-03-12T04:02:53;4.10;;;0.65;;
35026;SDS011;60696;51.426;6.934;2023-03-12T04:05:19;6.22;;;0.75;;
35026;SDS011;60696;51.426;6.934;2023-03-12T04:07:45;1.73;;;0.73;;
35026;SDS011;60696;51.426;6.934;2023-03-12T04:10:11;2.25;;;1.00;;
35026;SDS011;60696;51.426;6.934;2023-03-12T04:12:37;3.80;;;1.15;;
35026;SDS011;60696;51.426;6.934;2023-03-12T04:15:03;5.45;;;0.65;;
35026;SDS011;60696;51.426;6.934;2023-03-12T04:17:29;3.75;;;0.90;;
35026;SDS011;60696;51.426;6.934;2023-03-12T04:19:54;1.75;;;0.82;;
35026;SDS011;60696;51.426;6.934;2023-03-12T04:22:20;3.28;;;0.70;;
35026;SDS011;60696;51.426;6.934;2023-03-12T04:24:45;5.68;;;1.00;;
35026;SDS011;60696;51.426;6.934;2023-03-12T04:27:11;6.32;;;1.05;;
35026;SDS011;60696;51.426;6.934;2023-03-12T04:29:36;5.90;;;0.80;;
35026;SDS011;60696;51.426;6.934;2023-03-12T04:32:04;4.10;;;1.10;;
35026;SDS011;60696;51.426;6.934;2023-03-12T04:34:30;1.63;;;0.80;;
35026;SDS011;60696;51.426;6.934;2023-03-12T04:36:56;1.35;;;0.93;;
35026;SDS011;60696;51.426;6.934;2023-03-12T04:39:21;2.92;;;0.77;;
35026;SDS011;60696;51.426;6.934;2023-03-12T04:41:47;3.38;;;0.88;;
35026;SDS011;60696;51.426;6.934;2023-03-12T04:44:13;2.35;;;0.70;;
35026;SDS011;60696;51.426;6.934;2023-03-12T04:46:39;3.50;;;0.93;;
35026;SDS011;60696;51.426;6.934;2023-03-12T04:49:05;1.00;;;0.68;;
35026;SDS011;60696;51.426;6.934;2023-03-12T04:51:30;7.47;;;1.38;;
35026;SDS011;60696;51.426;6.934;2023-03-12T04:53:56;2.25;;;0.82;;
35026;SDS011;60696;51.426;6.934;2023-03-12T04:56:22;4.72;;;0.70;;
35026;SDS011;60696;51.426;6.934;2023-03-12T04:58:48;7.05;;;1.30;;
35026;SDS011;60696;51.426;6.934;2023-03-12T05:01:18;4.13;;;0.63;;
35026;SDS011;60696;51.426;6.934;2023-03-12T05:03:53;5.07;;;1.05;;
35026;SDS011;60696;51.426;6.934;2023-03-12T05:06:19;1.80;;;1.05;;
35026;SDS011;60696;51.426;6.934;2023-03-12T05:08:46;2.15;;;0.88;;
35026;SDS011;60696;51.426;6.934;2023-03-12T05:11:12;3.58;;;0.98;;
35026;SDS011;60696;51.426;6.934;2023-03-12T05:13:39;1.40;;;0.73;;
35026;SDS011;60696;51.426;6.934;2023-03-12T05:16:04;3.30;;;1.00;;
35026;SDS011;60696;51.426;6.934;2023-03-12T05:18:30;4.38;;;1.20;;
35026;SDS011;60696;51.426;6.934;2023-03-12T05:20:57;6.90;;;1.02;;
35026;SDS011;60696;51.426;6.934;2023-03-12T05:23:23;2.38;;;0.90;;
35026;SDS011;60696;51.426;6.934;2023-03-12T05:25:49;7.57;;;1.00;;
35026;SDS011;60696;51.426;6.934;2023-03-12T05:28:15;3.58;;;1.05;;
35026;SDS011;60696;51.426;6.934;2023-03-12T05:30:40;6.93;;;1.55;;
35026;SDS011;60696;51.426;6.934;2023-03-12T05:33:06;4.63;;;1.45;;
35026;SDS011;60696;51.426;6.934;2023-03-12T05:35:31;3.22;;;1.15;;
35026;SDS011;60696;51.426;6.934;2023-03-12T05:37:57;2.05;;;0.80;;
35026;SDS011;60696;51.426;6.934;2023-03-12T05:40:23;7.95;;;1.52;;
35026;SDS011;60696;51.426;6.934;2023-03-12T05:42:48;3.55;;;1.38;;
35026;SDS011;60696;51.426;6.934;2023-03-12T05:45:14;1.60;;;0.98;;
35026;SDS011;60696;51.426;6.934;2023-03-12T05:47:39;2.60;;;1.23;;
35026;SDS011;60696;51.426;6.934;2023-03-12T05:50:05;4.45;;;1.20;;
35026;SDS011;60696;51.426;6.934;2023-03-12T05:52:31;9.18;;;1.40;;
35026;SDS011;60696;51.426;6.934;2023-03-12T05:54:56;2.35;;;1.13;;
35026;SDS011;60696;51.426;6.934;2023-03-12T05:57:22;4.97;;;1.27;;
35026;SDS011;60696;51.426;6.934;2023-03-12T05:59:48;5.10;;;1.17;;
35026;SDS011;60696;51.426;6.934;2023-03-12T06:02:13;5.22;;;1.10;;
35026;SDS011;60696;51.426;6.934;2023-03-12T06:04:39;5.82;;;1.60;;
35026;SDS011;60696;51.426;6.934;2023-03-12T06:07:04;4.25;;;1.40;;
35026;SDS011;60696;51.426;6.934;2023-03-12T06:09:30;2.35;;;0.95;;
35026;SDS011;60696;51.426;6.934;2023-03-12T06:11:55;6.93;;;1.30;;
35026;SDS011;60696;51.426;6.934;2023-03-12T06:14:21;2.50;;;1.35;;
35026;SDS011;60696;51.426;6.934;2023-03-12T06:16:47;2.88;;;1.20;;
35026;SDS011;60696;51.426;6.934;2023-03-12T06:19:12;6.15;;;1.15;;
35026;SDS011;60696;51.426;6.934;2023-03-12T06:21:38;6.40;;;1.42;;
35026;SDS011;60696;51.426;6.934;2023-03-12T06:24:04;3.05;;;1.13;;
35026;SDS011;60696;51.426;6.934;2023-03-12T06:26:30;4.07;;;0.90;;
35026;SDS011;60696;51.426;6.934;2023-03-12T06:28:55;3.53;;;1.10;;
35026;SDS011;60696;51.426;6.934;2023-03-12T06:31:21;1.95;;;0.70;;
35026;SDS011;60696;51.426;6.934;2023-03-12T06:33:47;3.58;;;1.55;;
35026;SDS011;60696;51.426;6.934;2023-03-12T06:36:13;1.98;;;0.98;;
35026;SDS011;60696;51.426;6.934;2023-03-12T06:38:39;4.97;;;1.45;;
35026;SDS011;60696;51.426;6.934;2023-03-12T06:41:06;3.40;;;1.63;;
35026;SDS011;60696;51.426;6.934;2023-03-12T06:43:35;11.75;;;1.45;;
35026;SDS011;60696;51.426;6.934;2023-03-12T06:46:02;7.78;;;1.10;;
35026;SDS011;60696;51.426;6.934;2023-03-12T06:48:29;4.35;;;1.30;;
35026;SDS011;60696;51.426;6.934;2023-03-12T06:50:57;5.50;;;1.08;;
35026;SDS011;60696;51.426;6.934;2023-03-12T06:53:23;3.78;;;1.25;;
35026;SDS011;60696;51.426;6.934;2023-03-12T06:55:50;4.15;;;1.10;;
35026;SDS011;60696;51.426;6.934;2023-03-12T06:58:16;6.82;;;1.40;;
35026;SDS011;60696;51.426;6.934;2023-03-12T07:00:42;3.75;;;1.23;;
35026;SDS011;60696;51.426;6.934;2023-03-12T07:03:08;6.63;;;1.88;;
35026;SDS011;60696;51.426;6.934;2023-03-12T07:05:33;6.68;;;1.60;;
35026;SDS011;60696;51.426;6.934;2023-03-12T07:07:59;5.15;;;1.65;;
35026;SDS011;60696;51.426;6.934;2023-03-12T07:10:24;3.25;;;1.20;;
35026;SDS011;60696;51.426;6.934;2023-03-12T07:12:53;3.15;;;1.83;;
35026;SDS011;60696;51.426;6.934;2023-03-12T07:15:19;5.95;;;1.88;;
35026;SDS011;60696;51.426;6.934;2023-03-12T07:17:46;7.68;;;1.58;;
35026;SDS011;60696;51.426;6.934;2023-03-12T07:20:11;4.85;;;1.65;;
35026;SDS011;60696;51.426;6.934;2023-03-12T07:22:38;6.70;;;1.50;;
35026;SDS011;60696;51.426;6.934;2023-03-12T07:25:03;7.57;;;1.42;;
35026;SDS011;60696;51.426;6.934;2023-03-12T07:27:29;4.95;;;1.70;;
35026;SDS011;60696;51.426;6.934;2023-03-12T07:29:55;6.15;;;1.45;;
35026;SDS011;60696;51.426;6.934;2023-03-12T07:32:20;5.80;;;2.13;;
35026;SDS011;60696;51.426;6.934;2023-03-12T07:34:46;5.68;;;1.27;;
35026;SDS011;60696;51.426;6.934;2023-03-12T07:37:12;7.18;;;1.60;;
35026;SDS011;60696;51.426;6.934;2023-03-12T07:39:37;5.30;;;1.77;;
35026;SDS011;60696;51.426;6.934;2023-03-12T07:42:03;2.70;;;1.60;;
35026;SDS011;60696;51.426;6.934;2023-03-12T07:44:29;4.10;;;1.55;;
35026;SDS011;60696;51.426;6.934;2023-03-12T07:46:54;3.03;;;1.13;;
35026;SDS011;60696;51.426;6.934;2023-03-12T07:49:20;2.88;;;1.42;;
35026;SDS011;60696;51.426;6.934;2023-03-12T07:51:46;4.85;;;1.48;;
35026;SDS011;60696;51.426;6.934;2023-03-12T07:54:12;4.82;;;1.30;;
35026;SDS011;60696;51.426;6.934;2023-03-12T07:56:37;7.93;;;1.50;;
35026;SDS011;60696;51.426;6.934;2023-03-12T07:59:03;4.22;;;1.17;;
35026;SDS011;60696;51.426;6.934;2023-03-12T08:01:29;2.95;;;1.38;;
35026;SDS011;60696;51.426;6.934;2023-03-12T08:03:56;2.75;;;1.38;;
35026;SDS011;60696;51.426;6.934;2023-03-12T08:06:22;3.47;;;1.38;;
35026;SDS011;60696;51.426;6.934;2023-03-12T08:08:48;8.23;;;1.77;;
35026;SDS011;60696;51.426;6.934;2023-03-12T08:11:14;5.50;;;1.20;;
35026;SDS011;60696;51.426;6.934;2023-03-12T08:13:40;4.63;;;1.40;;
35026;SDS011;60696;51.426;6.934;2023-03-12T08:16:05;8.05;;;1.73;;
35026;SDS011;60696;51.426;6.934;2023-03-12T08:18:31;6.32;;;1.75;;
35026;SDS011;60696;51.426;6.934;2023-03-12T08:20:57;6.60;;;1.40;;
35026;SDS011;60696;51.426;6.934;2023-03-12T08:23:22;4.97;;;1.52;;
35026;SDS011;60696;51.426;6.934;2023-03-12T08:25:48;3.90;;;1.55;;
35026;SDS011;60696;51.426;6.934;2023-03-12T08:28:15;4.85;;;1.13;;
35026;SDS011;60696;51.426;6.934;2023-03-12T08:30:48;7.28;;;1.73;;
35026;SDS011;60696;51.426;6.934;2023-03-12T08:33:15;6.28;;;1.55;;
35026;SDS011;60696;51.426;6.934;2023-03-12T08:35:41;2.67;;;1.40;;
35026;SDS011;60696;51.426;6.934;2023-03-12T08:38:07;4.03;;;1.40;;
35026;SDS011;60696;51.426;6.934;2023-03-12T08:40:33;8.45;;;2.08;;
35026;SDS011;60696;51.426;6.934;2023-03-12T08:42:58;7.22;;;2.22;;
35026;SDS011;60696;51.426;6.934;2023-03-12T08:45:24;2.72;;;1.45;;
35026;SDS011;60696;51.426;6.934;2023-03-12T08:47:50;4.38;;;1.40;;
35026;SDS011;60696;51.426;6.934;2023-03-12T08:50:16;7.28;;;2.47;;
35026;SDS011;60696;51.426;6.934;2023-03-12T08:52:42;4.25;;;2.03;;
35026;SDS011;60696;51.426;6.934;2023-03-12T08:55:09;8.35;;;2.00;;
35026;SDS011;60696;51.426;6.934;2023-03-12T08:57:35;8.30;;;2.40;;
35026;SDS011;60696;51.426;6.934;2023-03-12T09:00:01;4.82;;;1.77;;
35026;SDS011;60696;51.426;6.934;2023-03-12T09:02:30;2.35;;;1.65;;
35026;SDS011;60696;51.426;6.934;2023-03-12T09:04:55;6.15;;;1.83;;
35026;SDS011;60696;51.426;6.934;2023-03-12T09:07:21;6.90;;;2.03;;
35026;SDS011;60696;51.426;6.934;2023-03-12T09:09:46;4.28;;;2.00;;
35026;SDS011;60696;51.426;6.934;2023-03-12T09:12:12;2.97;;;1.80;;
35026;SDS011;60696;51.426;6.934;2023-03-12T09:14:38;2.50;;;1.42;;
35026;SDS011;60696;51.426;6.934;2023-03-12T09:17:04;6.13;;;1.85;;
35026;SDS011;60696;51.426;6.934;2023-03-12T09:19:29;3.90;;;1.65;;
35026;SDS011;60696;51.426;6.934;2023-03-12T09:21:55;5.03;;;1.55;;
35026;SDS011;60696;51.426;6.934;2023-03-12T09:24:21;4.70;;;2.55;;
35026;SDS011;60696;51.426;6.934;2023-03-12T09:26:47;8.27;;;2.10;;
35026;SDS011;60696;51.426;6.934;2023-03-12T09:29:13;4.20;;;1.90;;
35026;SDS011;60696;51.426;6.934;2023-03-12T09:31:38;5.85;;;2.08;;
35026;SDS011;60696;51.426;6.934;2023-03-12T09:34:04;2.85;;;1.90;;
35026;SDS011;60696;51.426;6.934;2023-03-12T09:36:29;3.97;;;1.75;;
35026;SDS011;60696;51.426;6.934;2023-03-12T09:38:55;4.40;;;1.85;;
35026;SDS011;60696;51.426;6.934;2023-03-12T09:41:25;5.57;;;2.60;;
35026;SDS011;60696;51.426;6.934;2023-03-12T09:43:57;4.00;;;2.25;;
35026;SDS011;60696;51.426;6.934;2023-03-12T09:46:37;6.03;;;2.65;;
35026;SDS011;60696;51.426;6.934;2023-03-12T09:49:06;2.47;;;1.77;;
35026;SDS011;60696;51.426;6.934;2023-03-12T09:51:42;5.70;;;2.50;;
35026;SDS011;60696;51.426;6.934;2023-03-12T09:54:31;3.72;;;2.00;;
35026;SDS011;60696;51.426;6.934;2023-03-12T09:56:59;7.50;;;2.45;;
35026;SDS011;60696;51.426;6.934;2023-03-12T09:59:33;5.75;;;2.63;;
35026;SDS011;60696;51.426;6.934;2023-03-12T10:02:01;4.50;;;3.42;;
35026;SDS011;60696;51.426;6.934;2023-03-12T10:04:40;5.13;;;2.63;;
35026;SDS011;60696;51.426;6.934;2023-03-12T10:07:33;2.22;;;1.65;;
35026;SDS011;60696;51.426;6.934;2023-03-12T10:18:37;3.10;;;1.90;;
35026;SDS011;60696;51.426;6.934;2023-03-12T10:21:13;3.58;;;1.80;;
35026;SDS011;60696;51.426;6.934;2023-03-12T10:36:58;2.17;;;1.60;;
35026;SDS011;60696;51.426;6.934;2023-03-12T10:39:29;2.47;;;1.75;;
35026;SDS011;60696;51.426;6.934;2023-03-12T10:41:54;2.83;;;2.10;;
35026;SDS011;60696;51.426;6.934;2023-03-12T10:44:24;2.55;;;1.55;;
35026;SDS011;60696;51.426;6.934;2023-03-12T10:46:51;3.38;;;1.95;;
35026;SDS011;60696;51.426;6.934;2023-03-12T10:49:24;6.55;;;1.98;;
35026;SDS011;60696;51.426;6.934;2023-03-12T10:52:04;4.32;;;2.25;;
35026;SDS011;60696;51.426;6.934;2023-03-12T10:54:44;2.95;;;2.00;;
35026;SDS011;60696;51.426;6.934;2023-03-12T10:57:17;4.05;;;1.75;;
35026;SDS011;60696;51.426;6.934;2023-03-12T10:59:47;2.50;;;2.00;;
35026;SDS011;60696;51.426;6.934;2023-03-12T11:05:00;3.17;;;2.20;;
35026;SDS011;60696;51.426;6.934;2023-03-12T11:07:31;3.17;;;2.28;;
35026;SDS011;60696;51.426;6.934;2023-03-12T11:12:30;3.95;;;2.35;;
35026;SDS011;60696;51.426;6.934;2023-03-12T11:14:58;3.58;;;2.72;;
35026;SDS011;60696;51.426;6.934;2023-03-12T11:17:25;3.50;;;2.55;;
35026;SDS011;60696;51.426;6.934;2023-03-12T11:19:52;4.47;;;2.40;;
35026;SDS011;60696;51.426;6.934;2023-03-12T11:22:32;5.28;;;3.08;;
35026;SDS011;60696;51.426;6.934;2023-03-12T11:25:00;4.50;;;3.13;;
35026;SDS011;60696;51.426;6.934;2023-03-12T11:27:40;5.30;;;3.45;;
35026;SDS011;60696;51.426;6.934;2023-03-12T11:30:15;5.75;;;3.33;;
35026;SDS011;60696;51.426;6.934;2023-03-12T11:32:47;5.40;;;3.10;;
35026;SDS011;60696;51.426;6.934;2023-03-12T11:35:15;4.03;;;2.92;;
35026;SDS011;60696;51.426;6.934;2023-03-12T11:46:03;7.32;;;3.38;;
35026;SDS011;60696;51.426;6.934;2023-03-12T11:51:12;5.15;;;3.45;;
35026;SDS011;60696;51.426;6.934;2023-03-12T11:59:01;4.78;;;3.05;;
35026;SDS011;60696;51.426;6.934;2023-03-12T12:01:35;6.43;;;4.15;;
35026;SDS011;60696;51.426;6.934;2023-03-12T12:12:24;6.72;;;4.47;;
35026;SDS011;60696;51.426;6.934;2023-03-12T12:15:01;5.63;;;4.05;;
35026;SDS011;60696;51.426;6.934;2023-03-12T12:23:09;9.90;;;5.70;;
35026;SDS011;60696;51.426;6.934;2023-03-12T12:25:58;8.02;;;5.05;;
35026;SDS011;60696;51.426;6.934;2023-03-12T12:28:44;8.48;;;5.45;;
35026;SDS011;60696;51.426;6.934;2023-03-12T12:31:23;9.73;;;5.95;;
35026;SDS011;60696;51.426;6.934;2023-03-12T12:36:54;10.23;;;6.32;;
35026;SDS011;60696;51.426;6.934;2023-03-12T12:39:35;11.05;;;6.25;;
35026;SDS011;60696;51.426;6.934;2023-03-12T12:42:06;11.68;;;6.60;;
35026;SDS011;60696;51.426;6.934;2023-03-12T12:44:42;10.35;;;6.10;;
35026;SDS011;60696;51.426;6.934;2023-03-12T12:47:14;11.65;;;6.40;;
35026;SDS011;60696;51.426;6.934;2023-03-12T12:49:50;13.95;;;6.63;;
35026;SDS011;60696;51.426;6.934;2023-03-12T12:52:23;8.82;;;6.18;;
35026;SDS011;60696;51.426;6.934;2023-03-12T13:00:54;12.07;;;7.03;;
35026;SDS011;60696;51.426;6.934;2023-03-12T13:03:03;17.65;;;8.63;;
35026;SDS011;60696;51.426;6.934;2023-03-12T13:13:03;14.35;;;7.07;;
35026;SDS011;60696;51.426;6.934;2023-03-12T13:15:35;15.02;;;7.03;;
35026;SDS011;60696;51.426;6.934;2023-03-12T13:18:16;13.10;;;7.60;;
35026;SDS011;60696;51.426;6.934;2023-03-12T13:26:37;12.10;;;6.80;;
35026;SDS011;60696;51.426;6.934;2023-03-12T13:34:59;23.08;;;7.00;;
35026;SDS011;60696;51.426;6.934;2023-03-12T13:43:13;24.10;;;6.95;;
35026;SDS011;60696;51.426;6.934;2023-03-12T13:48:25;20.38;;;6.80;;
35026;SDS011;60696;51.426;6.934;2023-03-12T13:53:21;20.92;;;6.25;;
35026;SDS011;60696;51.426;6.934;2023-03-12T13:55:58;17.25;;;6.18;;
35026;SDS011;60696;51.426;6.934;2023-03-12T13:58:29;15.73;;;5.50;;
35026;SDS011;60696;51.426;6.934;2023-03-12T14:00:56;24.65;;;5.82;;
35026;SDS011;60696;51.426;6.934;2023-03-12T14:03:34;21.25;;;5.88;;
35026;SDS011;60696;51.426;6.934;2023-03-12T14:06:09;20.08;;;5.43;;
35026;SDS011;60696;51.426;6.934;2023-03-12T14:17:23;21.83;;;4.45;;
35026;SDS011;60696;51.426;6.934;2023-03-12T14:20:04;25.48;;;4.35;;
35026;SDS011;60696;51.426;6.934;2023-03-12T14:22:43;13.48;;;4.57;;
35026;SDS011;60696;51.426;6.934;2023-03-12T14:25:16;24.30;;;5.35;;
35026;SDS011;60696;51.426;6.934;2023-03-12T14:27:57;20.00;;;4.47;;
35026;SDS011;60696;51.426;6.934;2023-03-12T14:30:47;18.85;;;4.15;;
35026;SDS011;60696;51.426;6.934;2023-03-12T14:33:13;23.13;;;4.60;;
35026;SDS011;60696;51.426;6.934;2023-03-12T14:35:41;20.10;;;4.80;;
35026;SDS011;60696;51.426;6.934;2023-03-12T14:38:29;16.40;;;4.38;;
35026;SDS011;60696;51.426;6.934;2023-03-12T14:41:02;13.00;;;3.83;;
35026;SDS011;60696;51.426;6.934;2023-03-12T14:43:37;19.85;;;4.40;;
35026;SDS011;60696;51.426;6.934;2023-03-12T14:46:05;19.90;;;3.78;;
35026;SDS011;60696;51.426;6.934;2023-03-12T14:48:49;18.20;;;3.60;;
35026;SDS011;60696;51.426;6.934;2023-03-12T14:51:23;22.77;;;4.20;;
35026;SDS011;60696;51.426;6.934;2023-03-12T14:53:53;19.90;;;3.58;;
35026;SDS011;60696;51.426;6.934;2023-03-12T14:56:24;13.70;;;3.45;;
35026;SDS011;60696;51.426;6.934;2023-03-12T14:58:55;20.98;;;3.15;;
35026;SDS011;60696;51.426;6.934;2023-03-12T15:01:23;23.67;;;3.72;;
35026;SDS011;60696;51.426;6.934;2023-03-12T15:03:58;9.85;;;2.85;;
35026;SDS011;60696;51.426;6.934;2023-03-12T15:09:24;21.90;;;3.25;;
35026;SDS011;60696;51.426;6.934;2023-03-12T15:11:58;15.85;;;2.88;;
35026;SDS011;60696;51.426;6.934;2023-03-12T15:14:27;22.42;;;3.60;;
35026;SDS011;60696;51.426;6.934;2023-03-12T15:16:56;20.65;;;2.55;;
35026;SDS011;60696;51.426;6.934;2023-03-12T15:19:25;21.90;;;2.88;;
35026;SDS011;60696;51.426;6.934;2023-03-12T15:21:55;16.00;;;2.88;;
35026;SDS011;60696;51.426;6.934;2023-03-12T15:24:21;15.38;;;2.42;;
35026;SDS011;60696;51.426;6.934;2023-03-12T15:26:48;22.05;;;2.67;;
35026;SDS011;60696;51.426;6.934;2023-03-12T15:31:51;20.35;;;2.85;;
35026;SDS011;60696;51.426;6.934;2023-03-12T15:34:42;16.63;;;2.55;;
35026;SDS011;60696;51.426;6.934;2023-03-12T15:39:56;16.25;;;3.20;;
35026;SDS011;60696;51.426;6.934;2023-03-12T15:42:24;19.10;;;2.15;;
35026;SDS011;60696;51.426;6.934;2023-03-12T15:44:52;24.15;;;2.38;;
35026;SDS011;60696;51.426;6.934;2023-03-12T15:47:21;16.15;;;2.55;;
35026;SDS011;60696;51.426;6.934;2023-03-12T15:49:58;22.88;;;2.97;;
35026;SDS011;60696;51.426;6.934;2023-03-12T15:52:28;16.80;;;2.60;;
35026;SDS011;60696;51.426;6.934;2023-03-12T15:55:00;17.70;;;3.35;;
35026;SDS011;60696;51.426;6.934;2023-03-12T16:00:42;20.30;;;3.00;;
35026;SDS011;60696;51.426;6.934;2023-03-12T16:03:16;20.90;;;2.75;;
35026;SDS011;60696;51.426;6.934;2023-03-12T16:05:43;15.10;;;2.53;;
35026;SDS011;60696;51.426;6.934;2023-03-12T16:08:19;19.13;;;2.97;;
35026;SDS011;60696;51.426;6.934;2023-03-12T16:10:47;21.55;;;3.17;;
35026;SDS011;60696;51.426;6.934;2023-03-12T16:13:14;23.70;;;2.88;;
35026;SDS011;60696;51.426;6.934;2023-03-12T16:15:45;14.30;;;2.60;;
35026;SDS011;60696;51.426;6.934;2023-03-12T16:18:12;22.60;;;3.13;;
35026;SDS011;60696;51.426;6.934;2023-03-12T16:20:39;21.75;;;3.53;;
35026;SDS011;60696;51.426;6.934;2023-03-12T16:23:05;21.83;;;3.88;;
35026;SDS011;60696;51.426;6.934;2023-03-12T16:25:30;18.33;;;2.78;;
35026;SDS011;60696;51.426;6.934;2023-03-12T16:27:57;23.23;;;2.90;;
35026;SDS011;60696;51.426;6.934;2023-03-12T16:30:27;22.65;;;2.85;;
35026;SDS011;60696;51.426;6.934;2023-03-12T16:32:55;19.42;;;3.13;;
35026;SDS011;60696;51.426;6.934;2023-03-12T16:35:21;12.80;;;2.30;;
35026;SDS011;60696;51.426;6.934;2023-03-12T16:37:52;22.88;;;3.15;;
35026;SDS011;60696;51.426;6.934;2023-03-12T16:40:19;24.33;;;2.50;;
35026;SDS011;60696;51.426;6.934;2023-03-12T16:42:46;31.95;;;3.45;;
35026;SDS011;60696;51.426;6.934;2023-03-12T16:45:17;18.73;;;2.08;;
35026;SDS011;60696;51.426;6.934;2023-03-12T16:47:43;18.75;;;3.25;;
35026;SDS011;60696;51.426;6.934;2023-03-12T16:50:16;16.77;;;2.72;;
35026;SDS011;60696;51.426;6.934;2023-03-12T16:52:44;14.43;;;3.15;;